createdAt,value
2023-01-30T00:03:39.765Z,13.00
2023-01-30T00:08:39.762Z,12.78
2023-01-30T00:13:39.756Z,12.62
2023-01-30T00:18:39.732Z,12.62
2023-01-30T00:23:39.711Z,12.62
2023-01-30T00:28:39.745Z,12.62
2023-01-30T00:33:39.702Z,12.73
2023-01-30T00:38:39.692Z,12.78
2023-01-30T00:43:39.646Z,13.00
2023-01-30T00:48:39.631Z,12.68
2023-01-30T00:53:39.610Z,13.11
2023-01-30T00:58:39.599Z,12.84
2023-01-30T01:03:39.587Z,12.78
2023-01-30T01:08:39.579Z,12.84
2023-01-30T01:13:39.533Z,12.68
2023-01-30T01:18:39.533Z,12.62
2023-01-30T01:23:39.483Z,13.00
2023-01-30T01:28:39.469Z,12.78
2023-01-30T01:33:39.459Z,12.78
2023-01-30T01:38:39.451Z,12.68
2023-01-30T01:43:39.438Z,12.68
2023-01-30T01:48:39.432Z,13.05
2023-01-30T01:53:39.386Z,13.05
2023-01-30T01:58:39.376Z,12.94
2023-01-30T02:03:39.380Z,13.16
2023-01-30T02:08:39.331Z,12.73
2023-01-30T02:13:39.282Z,12.78
2023-01-30T02:18:39.260Z,12.62
2023-01-30T02:23:39.217Z,13.00
2023-01-30T02:28:39.200Z,12.62
2023-01-30T02:33:39.176Z,12.62
2023-01-30T02:38:39.149Z,13.21
2023-01-30T02:43:39.114Z,13.21
2023-01-30T02:48:39.107Z,12.78
2023-01-30T02:53:39.072Z,12.68
2023-01-30T02:58:39.037Z,13.05
2023-01-30T03:03:39.003Z,13.05
2023-01-30T03:08:38.967Z,13.21
2023-01-30T03:13:41.596Z,12.84
2023-01-30T03:18:38.911Z,12.84
2023-01-30T03:23:38.898Z,13.21
2023-01-30T03:28:38.875Z,13.00
2023-01-30T03:33:38.851Z,12.73
2023-01-30T03:38:38.811Z,13.11
2023-01-30T03:43:38.772Z,12.57
2023-01-30T03:48:38.750Z,12.78
2023-01-30T03:53:38.712Z,13.16
2023-01-30T03:58:38.702Z,13.05
2023-01-30T04:03:38.669Z,12.89
2023-01-30T04:08:38.637Z,12.84
2023-01-30T04:13:38.600Z,12.62
2023-01-30T04:18:38.570Z,12.73
2023-01-30T04:23:38.574Z,12.78
2023-01-30T04:28:38.546Z,13.16
2023-01-30T04:33:38.630Z,13.11
2023-01-30T04:38:38.483Z,12.57
2023-01-30T04:43:38.516Z,12.62
2023-01-30T04:48:38.439Z,12.68
2023-01-30T04:53:38.415Z,12.73
2023-01-30T04:58:38.384Z,12.78
2023-01-30T05:03:38.365Z,12.78
2023-01-30T05:08:38.330Z,12.78
2023-01-30T05:13:38.298Z,12.89
2023-01-30T05:18:38.273Z,12.68
2023-01-30T05:23:38.247Z,12.57
2023-01-30T05:28:38.225Z,13.05
2023-01-30T05:33:38.195Z,13.21
2023-01-30T05:38:38.160Z,12.57
2023-01-30T05:43:38.129Z,13.00
2023-01-30T05:48:38.093Z,12.84
2023-01-30T05:53:38.053Z,12.68
2023-01-30T05:58:38.019Z,12.62
2023-01-30T06:03:38.033Z,12.62
2023-01-30T06:08:37.976Z,12.78
2023-01-30T06:13:37.961Z,13.27
2023-01-30T06:18:37.967Z,13.05
2023-01-30T06:23:37.910Z,12.78
2023-01-30T06:28:37.869Z,12.62
2023-01-30T06:33:38.630Z,13.05
2023-01-30T06:38:37.801Z,12.57
2023-01-30T06:43:37.770Z,13.11
2023-01-30T06:48:37.742Z,13.00
2023-01-30T06:53:37.720Z,13.21
2023-01-30T06:58:37.698Z,13.21
2023-01-30T07:03:37.627Z,13.37
2023-01-30T07:08:37.615Z,13.37
2023-01-30T07:13:37.611Z,13.32
2023-01-30T07:18:37.552Z,13.16
2023-01-30T07:23:37.561Z,13.16
2023-01-30T07:28:49.699Z,13.21
2023-01-30T07:33:41.784Z,13.27
2023-01-30T07:52:50.110Z,13.37
2023-01-30T07:52:54.896Z,13.43
2023-01-30T08:12:00.115Z,13.37
2023-01-30T08:12:05.233Z,13.43
2023-01-30T08:17:11.714Z,13.16
2023-01-30T08:24:17.617Z,13.43
2023-01-30T08:27:06.561Z,13.43
2023-01-30T08:32:05.901Z,13.21
2023-01-30T08:38:09.227Z,13.27
2023-01-30T08:42:04.722Z,13.54
2023-01-30T08:53:12.019Z,13.16
2023-01-30T08:53:17.042Z,13.21
2023-01-30T08:58:16.770Z,13.21
2023-01-30T09:13:23.385Z,13.16
2023-01-30T09:17:33.494Z,13.32
2023-01-30T09:18:29.772Z,13.37
2023-01-30T09:23:31.390Z,13.16
2023-01-30T09:28:29.769Z,13.54
2023-01-30T09:33:36.822Z,13.64
2023-01-30T09:38:32.251Z,13.96
2023-01-30T09:43:29.577Z,13.91
2023-01-30T09:48:29.542Z,13.96
2023-01-30T09:57:34.907Z,13.96
2023-01-30T09:58:31.148Z,13.96
2023-01-30T10:03:33.024Z,13.96
2023-01-30T10:14:40.592Z,14.02
2023-01-30T10:14:45.400Z,13.96
2023-01-30T10:19:53.016Z,14.02
2023-01-30T10:24:48.065Z,14.18
2023-01-30T10:29:53.084Z,14.29
2023-01-30T10:34:47.159Z,14.29
2023-01-30T10:39:55.018Z,14.39
2023-01-30T10:44:54.844Z,14.45
2023-01-30T10:55:48.437Z,14.18
2023-01-30T10:55:53.229Z,14.02
2023-01-30T11:00:57.657Z,13.96
2023-01-30T11:06:07.926Z,14.34
2023-01-30T11:11:23.826Z,14.02
2023-01-30T11:24:00.359Z,14.18
2023-01-30T11:24:05.103Z,14.34
2023-01-30T11:29:05.129Z,13.96
2023-01-30T11:34:05.067Z,14.02
2023-01-30T11:39:05.064Z,14.39
2023-01-30T11:44:05.063Z,14.34
2023-01-30T11:49:46.461Z,14.02
2023-01-30T11:54:07.650Z,13.96
2023-01-30T11:59:04.963Z,14.13
2023-01-30T12:04:04.947Z,14.18
2023-01-30T12:09:07.555Z,14.13
2023-01-30T12:14:04.890Z,14.13
2023-01-30T12:19:04.825Z,14.02
2023-01-30T12:24:04.801Z,14.34
2023-01-30T12:29:04.961Z,14.13
2023-01-30T12:34:04.800Z,14.13
2023-01-30T12:39:04.763Z,14.13
2023-01-30T12:44:04.771Z,14.39
2023-01-30T12:49:10.980Z,14.29
2023-01-30T12:55:49.943Z,14.13
2023-01-30T12:59:04.653Z,14.39
2023-01-30T13:04:06.165Z,14.18
2023-01-30T13:09:04.616Z,14.13
2023-01-30T13:14:04.586Z,14.13
2023-01-30T13:19:04.573Z,14.23
2023-01-30T13:24:09.176Z,14.18
2023-01-30T13:29:04.506Z,14.39
2023-01-30T13:34:04.466Z,13.96
2023-01-30T13:39:04.442Z,14.13
2023-01-30T13:44:04.437Z,14.02
2023-01-30T13:49:04.395Z,13.96
2023-01-30T13:54:04.372Z,14.02
2023-01-30T13:59:04.353Z,14.39
2023-01-30T14:04:04.457Z,14.07
2023-01-30T14:09:04.287Z,13.96
2023-01-30T14:14:07.011Z,14.13
2023-01-30T14:19:05.238Z,14.13
2023-01-30T14:24:04.217Z,13.96
2023-01-30T14:29:05.743Z,14.18
2023-01-30T14:34:05.685Z,14.34
2023-01-30T14:39:04.128Z,14.18
2023-01-30T14:44:07.599Z,14.34
2023-01-30T14:49:08.563Z,14.23
2023-01-30T14:54:04.119Z,14.34
2023-01-30T14:59:06.716Z,14.39
2023-01-30T15:04:04.021Z,14.18
2023-01-30T15:09:04.005Z,14.13
2023-01-30T15:15:05.055Z,14.02
2023-01-30T15:19:03.977Z,14.13
2023-01-30T15:24:03.913Z,14.34
2023-01-30T15:29:05.682Z,14.02
2023-01-30T15:34:03.854Z,14.18
2023-01-30T15:39:03.860Z,14.34
2023-01-30T15:44:10.192Z,14.56
2023-01-30T15:49:03.787Z,14.93
2023-01-30T15:54:03.760Z,14.77
2023-01-30T15:59:03.745Z,14.72
2023-01-30T16:04:03.695Z,15.09
2023-01-30T16:09:03.659Z,15.15
2023-01-30T16:14:03.632Z,15.36
2023-01-30T16:19:03.583Z,15.36
2023-01-30T16:24:03.540Z,14.93
2023-01-30T16:29:03.525Z,15.25
2023-01-30T16:34:03.530Z,14.93
2023-01-30T16:39:03.513Z,14.82
2023-01-30T16:44:03.463Z,15.15
2023-01-30T16:49:03.407Z,15.09
2023-01-30T16:54:03.402Z,15.20
2023-01-30T16:59:03.383Z,15.15
2023-01-30T17:04:03.326Z,15.20
2023-01-30T17:09:03.276Z,15.31
2023-01-30T17:14:03.270Z,14.77
2023-01-30T17:19:03.241Z,15.36
2023-01-30T17:24:03.218Z,15.09
2023-01-30T17:29:03.199Z,14.82
2023-01-30T17:34:03.193Z,15.36
2023-01-30T17:39:03.176Z,15.31
2023-01-30T17:44:03.169Z,15.31
2023-01-30T17:49:03.121Z,15.09
2023-01-30T17:54:03.079Z,14.77
2023-01-30T17:59:03.030Z,15.15
2023-01-30T18:04:03.043Z,15.25
2023-01-30T18:09:02.999Z,15.25
2023-01-30T18:14:02.943Z,15.20
2023-01-30T18:19:02.934Z,14.72
2023-01-30T18:24:02.918Z,15.15
2023-01-30T18:29:02.864Z,14.82
2023-01-30T18:34:02.875Z,15.15
2023-01-30T18:39:02.822Z,15.15
2023-01-30T18:44:02.833Z,14.93
2023-01-30T18:49:02.796Z,15.20
2023-01-30T18:54:02.815Z,15.15
2023-01-30T18:59:02.739Z,15.15
2023-01-30T19:04:02.764Z,15.15
2023-01-30T19:09:02.692Z,14.77
2023-01-30T19:14:02.681Z,14.93
2023-01-30T19:19:02.651Z,14.77
2023-01-30T19:24:02.628Z,15.20
2023-01-30T19:29:02.639Z,14.50
2023-01-30T19:34:02.566Z,14.88
2023-01-30T19:39:02.535Z,14.93
2023-01-30T19:44:02.491Z,14.61
2023-01-30T19:49:03.208Z,14.93
2023-01-30T19:54:02.423Z,14.77
2023-01-30T19:59:02.381Z,14.72
2023-01-30T20:04:02.369Z,14.77
2023-01-30T20:09:02.326Z,14.82
2023-01-30T20:14:02.309Z,14.93
2023-01-30T20:19:02.275Z,14.93
2023-01-30T20:24:02.244Z,14.82
2023-01-30T20:29:02.209Z,14.61
2023-01-30T20:34:02.193Z,14.56
2023-01-30T20:39:02.155Z,14.77
2023-01-30T20:44:02.111Z,14.82
2023-01-30T20:49:03.229Z,14.72
2023-01-30T20:54:02.051Z,14.93
2023-01-30T20:59:02.397Z,14.56
2023-01-30T21:04:01.985Z,14.50
2023-01-30T21:09:02.432Z,14.72
2023-01-30T21:14:02.137Z,14.77
2023-01-30T21:19:03.721Z,14.82
2023-01-30T21:24:01.895Z,14.77
2023-01-30T21:29:01.888Z,14.77
2023-01-30T21:34:01.810Z,14.77
2023-01-30T21:39:01.767Z,14.56
2023-01-30T21:44:01.727Z,14.50
2023-01-30T21:49:01.707Z,14.61
2023-01-30T21:54:01.668Z,14.72
2023-01-30T21:59:01.720Z,14.61
2023-01-30T22:04:01.676Z,14.56
2023-01-30T22:09:01.610Z,14.77
2023-01-30T22:14:01.648Z,14.77
2023-01-30T22:19:01.573Z,14.56
2023-01-30T22:24:02.152Z,14.18
2023-01-30T22:29:01.585Z,14.72
2023-01-30T22:34:01.498Z,14.56
2023-01-30T22:39:01.801Z,14.56
2023-01-30T22:44:01.437Z,14.50
2023-01-30T22:49:01.360Z,14.29
2023-01-30T22:54:01.313Z,14.61
2023-01-30T22:59:01.285Z,14.23
2023-01-30T23:04:01.278Z,14.39
2023-01-30T23:09:01.291Z,14.29
2023-01-30T23:14:01.228Z,14.23
2023-01-30T23:19:01.187Z,14.34
2023-01-30T23:24:01.181Z,14.56
2023-01-30T23:29:01.107Z,14.23
2023-01-30T23:34:01.082Z,14.39
2023-01-30T23:39:01.062Z,14.18
2023-01-30T23:44:01.035Z,14.13
2023-01-30T23:49:01.043Z,14.34
2023-01-30T23:54:01.020Z,14.18
2023-01-30T23:59:00.947Z,14.23
